createdAt,value
2023-04-15T00:00:32.529Z,66.48
2023-04-15T00:01:32.559Z,65.23
2023-04-15T00:02:32.612Z,63.88
2023-04-15T00:03:32.669Z,61.90
2023-04-15T00:04:32.573Z,62.53
2023-04-15T00:05:33.135Z,62.01
2023-04-15T00:06:32.480Z,62.01
2023-04-15T00:07:32.414Z,62.01
2023-04-15T00:08:33.157Z,62.01
2023-04-15T00:09:32.430Z,62.32
2023-04-15T00:10:32.409Z,62.22
2023-04-15T00:11:32.414Z,63.23
2023-04-15T00:12:33.076Z,63.57
2023-04-15T00:13:32.357Z,63.85
2023-04-15T00:14:33.092Z,64.89
2023-04-15T00:15:32.375Z,66.03
2023-04-15T00:16:32.377Z,65.34
2023-04-15T00:17:32.321Z,64.19
2023-04-15T00:18:32.333Z,63.02
2023-04-15T00:19:33.020Z,62.19
2023-04-15T00:20:32.289Z,62.60
2023-04-15T00:21:32.274Z,61.46
2023-04-15T00:22:32.923Z,62.29
2023-04-15T00:23:31.972Z,61.46
2023-04-15T00:24:32.008Z,62.40
2023-04-15T00:25:31.972Z,62.92
2023-04-15T00:26:32.194Z,63.64
2023-04-15T00:27:32.220Z,64.89
2023-04-15T00:28:32.166Z,64.48
2023-04-15T00:29:32.152Z,65.00
2023-04-15T00:30:32.213Z,66.87
2023-04-15T00:31:32.142Z,67.08
2023-04-15T00:32:32.115Z,67.70
2023-04-15T00:33:32.121Z,68.12
2023-04-15T00:34:32.110Z,69.50
2023-04-15T00:35:32.301Z,67.94
2023-04-15T00:36:32.808Z,65.13
2023-04-15T00:37:32.709Z,63.05
2023-04-15T00:38:32.002Z,63.88
2023-04-15T00:39:32.017Z,63.15
2023-04-15T00:40:32.020Z,62.53
2023-04-15T00:41:31.990Z,62.84
2023-04-15T00:42:32.717Z,61.69
2023-04-15T00:43:32.696Z,60.97
2023-04-15T00:44:32.672Z,61.69
2023-04-15T00:45:32.675Z,62.32
2023-04-15T00:46:32.654Z,63.88
2023-04-15T00:47:31.925Z,63.15
2023-04-15T00:48:31.876Z,63.15
2023-04-15T00:49:31.882Z,63.26
2023-04-15T00:50:31.935Z,62.63
2023-04-15T00:51:31.899Z,62.32
2023-04-15T00:52:31.900Z,62.84
2023-04-15T00:53:31.832Z,63.67
2023-04-15T00:54:31.853Z,63.57
2023-04-15T00:55:32.478Z,61.80
2023-04-15T00:56:31.795Z,61.38
2023-04-15T00:57:31.799Z,61.90
2023-04-15T00:58:31.740Z,61.49
2023-04-15T00:59:31.995Z,62.45
2023-04-15T01:00:31.755Z,62.76
2023-04-15T01:01:31.774Z,62.55
2023-04-15T01:02:32.073Z,63.46
2023-04-15T01:03:31.859Z,63.08
2023-04-15T01:04:31.799Z,64.22
2023-04-15T01:05:31.678Z,64.32
2023-04-15T01:06:31.666Z,64.85
2023-04-15T01:07:31.656Z,68.18
2023-04-15T01:08:31.625Z,68.91
2023-04-15T01:09:31.627Z,68.32
2023-04-15T01:10:31.622Z,66.75
2023-04-15T01:11:31.592Z,66.33
2023-04-15T01:12:31.576Z,67.07
2023-04-15T01:13:31.844Z,66.13
2023-04-15T01:14:31.562Z,64.77
2023-04-15T01:15:31.537Z,64.87
2023-04-15T01:16:31.737Z,66.44
2023-04-15T01:17:31.547Z,65.61
2023-04-15T01:18:31.484Z,65.53
2023-04-15T01:19:31.512Z,64.80
2023-04-15T01:20:31.701Z,64.49
2023-04-15T01:21:31.452Z,65.22
2023-04-15T01:22:31.472Z,62.82
2023-04-15T01:23:31.663Z,60.74
2023-04-15T01:24:31.183Z,59.39
2023-04-15T01:25:31.168Z,58.34
2023-04-15T01:26:31.172Z,58.97
2023-04-15T01:27:31.139Z,61.16
2023-04-15T01:28:31.381Z,61.99
2023-04-15T01:29:31.142Z,63.03
2023-04-15T01:30:31.111Z,63.24
2023-04-15T01:31:31.423Z,61.88
2023-04-15T01:32:31.345Z,60.63
2023-04-15T01:33:31.138Z,60.22
2023-04-15T01:34:32.111Z,60.63
2023-04-15T01:35:31.144Z,62.82
2023-04-15T01:36:30.593Z,65.22
2023-04-15T01:37:31.260Z,63.58
2023-04-15T01:38:31.241Z,62.12
2023-04-15T01:39:31.210Z,61.81
2023-04-15T01:40:31.214Z,63.48
2023-04-15T01:41:31.220Z,63.68
2023-04-15T01:42:31.188Z,63.48
2023-04-15T01:43:31.227Z,64.31
2023-04-15T01:44:31.186Z,66.19
2023-04-15T01:45:31.209Z,63.68
2023-04-15T01:46:31.183Z,62.23
2023-04-15T01:47:31.176Z,60.56
2023-04-15T01:48:31.113Z,59.83
2023-04-15T01:49:31.073Z,59.20
2023-04-15T01:50:31.111Z,60.46
2023-04-15T01:51:31.083Z,59.62
2023-04-15T01:52:31.086Z,59.83
2023-04-15T01:53:31.083Z,61.50
2023-04-15T01:54:30.817Z,61.40
2023-04-15T01:55:31.032Z,59.83
2023-04-15T01:56:31.029Z,60.97
2023-04-15T01:57:30.998Z,63.09
2023-04-15T01:58:30.976Z,62.15
2023-04-15T01:59:31.710Z,62.26
2023-04-15T02:00:30.980Z,63.40
2023-04-15T02:01:30.996Z,61.94
2023-04-15T02:02:31.123Z,59.75
2023-04-15T02:03:31.030Z,57.98
2023-04-15T02:04:30.894Z,57.56
2023-04-15T02:05:30.912Z,57.98
2023-04-15T02:06:30.886Z,58.08
2023-04-15T02:07:30.861Z,58.08
2023-04-15T02:08:30.855Z,59.12
2023-04-15T02:09:30.834Z,59.02
2023-04-15T02:10:30.834Z,59.02
2023-04-15T02:11:30.846Z,60.06
2023-04-15T02:12:30.800Z,60.58
2023-04-15T02:13:30.796Z,60.06
2023-04-15T02:14:30.751Z,60.27
2023-04-15T02:15:30.803Z,59.33
2023-04-15T02:16:30.823Z,59.86
2023-04-15T02:17:30.782Z,59.86
2023-04-15T02:18:30.739Z,60.17
2023-04-15T02:19:30.702Z,61.83
2023-04-15T02:20:30.954Z,63.40
2023-04-15T02:21:30.744Z,63.20
2023-04-15T02:22:30.698Z,63.51
2023-04-15T02:23:30.667Z,62.36
2023-04-15T02:24:30.644Z,61.83
2023-04-15T02:25:30.679Z,61.21
2023-04-15T02:26:30.632Z,60.72
2023-04-15T02:27:30.626Z,60.41
2023-04-15T02:28:30.596Z,60.10
2023-04-15T02:29:30.559Z,60.61
2023-04-15T02:30:30.589Z,61.24
2023-04-15T02:31:30.616Z,61.97
2023-04-15T02:32:30.575Z,63.54
2023-04-15T02:33:30.546Z,63.75
2023-04-15T02:34:30.511Z,64.37
2023-04-15T02:35:30.521Z,64.61
2023-04-15T02:36:30.484Z,62.94
2023-04-15T02:37:30.487Z,61.90
2023-04-15T02:38:31.140Z,61.37
2023-04-15T02:39:30.444Z,58.97
2023-04-15T02:40:30.432Z,59.59
2023-04-15T02:41:30.454Z,58.87
2023-04-15T02:42:30.419Z,58.55
2023-04-15T02:43:30.403Z,58.55
2023-04-15T02:44:30.422Z,58.97
2023-04-15T02:45:30.387Z,58.76
2023-04-15T02:46:30.383Z,57.09
2023-04-15T02:47:30.434Z,56.99
2023-04-15T02:48:30.104Z,56.99
2023-04-15T02:49:30.293Z,57.30
2023-04-15T02:50:30.314Z,58.34
2023-04-15T02:51:30.336Z,58.45
2023-04-15T02:52:30.121Z,58.66
2023-04-15T02:53:30.270Z,59.18
2023-04-15T02:54:30.239Z,57.82
2023-04-15T02:55:30.252Z,56.88
2023-04-15T02:56:30.261Z,56.15
2023-04-15T02:57:30.266Z,56.05
2023-04-15T02:58:30.456Z,56.36
2023-04-15T02:59:30.217Z,55.60
2023-04-15T03:00:30.195Z,55.50
2023-04-15T03:01:30.247Z,56.13
2023-04-15T03:02:30.285Z,57.28
2023-04-15T03:03:30.199Z,58.01
2023-04-15T03:04:30.164Z,58.73
2023-04-15T03:05:30.829Z,58.84
2023-04-15T03:06:30.832Z,58.66
2023-04-15T03:07:30.812Z,58.55
2023-04-15T03:08:30.785Z,59.39
2023-04-15T03:09:30.786Z,60.33
2023-04-15T03:10:30.799Z,61.06
2023-04-15T03:11:30.044Z,61.58
2023-04-15T03:12:30.026Z,61.69
2023-04-15T03:13:30.256Z,61.58
2023-04-15T03:14:30.008Z,62.00
2023-04-15T03:15:30.037Z,65.78
2023-04-15T03:16:29.979Z,65.26
2023-04-15T03:17:29.992Z,65.06
2023-04-15T03:18:30.016Z,64.64
2023-04-15T03:19:29.943Z,64.53
2023-04-15T03:20:29.964Z,63.70
2023-04-15T03:21:29.938Z,60.77
2023-04-15T03:22:29.917Z,60.15
2023-04-15T03:23:29.878Z,58.79
2023-04-15T03:24:29.851Z,57.95
2023-04-15T03:25:30.098Z,57.12
2023-04-15T03:26:29.876Z,57.43
2023-04-15T03:27:29.899Z,56.70
2023-04-15T03:28:30.473Z,56.81
2023-04-15T03:29:29.810Z,56.81
2023-04-15T03:30:30.017Z,57.54
2023-04-15T03:31:29.877Z,57.95
2023-04-15T03:32:30.421Z,58.06
2023-04-15T03:33:29.959Z,58.89
2023-04-15T03:34:29.772Z,59.10
2023-04-15T03:35:29.710Z,60.57
2023-04-15T03:36:29.704Z,59.63
2023-04-15T03:37:29.752Z,59.63
2023-04-15T03:38:29.696Z,58.89
2023-04-15T03:39:30.353Z,57.75
2023-04-15T03:40:29.644Z,57.01
2023-04-15T03:41:29.866Z,56.39
2023-04-15T03:42:29.670Z,56.05
2023-04-15T03:43:29.624Z,56.05
2023-04-15T03:44:29.344Z,55.84
2023-04-15T03:45:29.563Z,55.84
2023-04-15T03:46:29.626Z,56.26
2023-04-15T03:47:29.615Z,56.36
2023-04-15T03:48:29.550Z,56.78
2023-04-15T03:49:29.325Z,56.65
2023-04-15T03:50:29.536Z,57.07
2023-04-15T03:51:29.530Z,56.96
2023-04-15T03:52:28.939Z,58.22
2023-04-15T03:53:29.490Z,58.22
2023-04-15T03:54:29.528Z,58.42
2023-04-15T03:55:29.517Z,58.94
2023-04-15T03:56:29.317Z,58.53
2023-04-15T03:57:29.445Z,59.05
2023-04-15T03:58:29.438Z,59.36
2023-04-15T03:59:29.415Z,58.84
2023-04-15T04:00:29.356Z,59.88
2023-04-15T04:01:29.412Z,59.16
2023-04-15T04:02:29.462Z,59.88
2023-04-15T04:03:29.551Z,59.99
2023-04-15T04:04:29.504Z,60.30
2023-04-15T04:05:30.063Z,60.51
2023-04-15T04:06:29.336Z,60.82
2023-04-15T04:07:29.324Z,61.35
2023-04-15T04:08:28.645Z,61.13
2023-04-15T04:09:29.309Z,61.35
2023-04-15T04:10:29.501Z,60.82
2023-04-15T04:11:29.263Z,60.61
2023-04-15T04:12:29.258Z,59.99
2023-04-15T04:13:29.485Z,58.63
2023-04-15T04:14:29.202Z,58.63
2023-04-15T04:15:29.217Z,58.08
2023-04-15T04:16:29.957Z,58.29
2023-04-15T04:17:29.210Z,58.81
2023-04-15T04:18:28.919Z,59.75
2023-04-15T04:19:29.864Z,60.38
2023-04-15T04:20:29.131Z,59.86
2023-04-15T04:21:29.334Z,58.92
2023-04-15T04:22:29.094Z,60.27
2023-04-15T04:23:29.156Z,61.00
2023-04-15T04:24:29.084Z,60.58
2023-04-15T04:25:29.089Z,61.21
2023-04-15T04:26:29.306Z,61.52
2023-04-15T04:27:29.060Z,61.11
2023-04-15T04:28:29.028Z,61.52
2023-04-15T04:29:29.238Z,62.26
2023-04-15T04:30:28.978Z,62.88
2023-04-15T04:31:29.048Z,63.51
2023-04-15T04:32:29.052Z,63.09
2023-04-15T04:33:29.019Z,63.51
2023-04-15T04:34:29.179Z,64.23
2023-04-15T04:35:28.913Z,63.82
2023-04-15T04:36:28.956Z,63.40
2023-04-15T04:37:29.123Z,62.98
2023-04-15T04:38:28.903Z,62.15
2023-04-15T04:39:28.931Z,61.32
2023-04-15T04:40:28.842Z,61.52
2023-04-15T04:41:28.848Z,61.63
2023-04-15T04:42:29.071Z,61.73
2023-04-15T04:43:28.868Z,61.52
2023-04-15T04:44:28.812Z,61.73
2023-04-15T04:45:28.775Z,60.80
2023-04-15T04:46:28.811Z,59.65
2023-04-15T04:47:28.820Z,59.44
2023-04-15T04:48:28.789Z,59.10
2023-04-15T04:49:28.747Z,59.41
2023-04-15T04:50:28.965Z,60.25
2023-04-15T04:51:28.750Z,60.97
2023-04-15T04:52:28.725Z,60.66
2023-04-15T04:53:28.914Z,61.18
2023-04-15T04:54:28.700Z,61.26
2023-04-15T04:55:28.628Z,61.99
2023-04-15T04:56:28.703Z,62.82
2023-04-15T04:57:28.647Z,62.72
2023-04-15T04:58:28.690Z,63.24
2023-04-15T04:59:28.617Z,64.59
2023-04-15T05:00:28.579Z,64.49
2023-04-15T05:01:28.882Z,64.49
2023-04-15T05:02:29.404Z,64.70
2023-04-15T05:03:28.678Z,65.11
2023-04-15T05:04:28.581Z,65.43
2023-04-15T05:05:28.515Z,66.78
2023-04-15T05:06:28.522Z,65.95
2023-04-15T05:07:28.555Z,66.33
2023-04-15T05:08:28.496Z,66.44
2023-04-15T05:09:28.490Z,66.44
2023-04-15T05:10:28.460Z,68.00
2023-04-15T05:11:28.452Z,68.55
2023-04-15T05:12:28.206Z,67.51
2023-04-15T05:13:28.208Z,66.54
2023-04-15T05:14:28.413Z,68.00
2023-04-15T05:15:28.478Z,68.94
2023-04-15T05:16:28.433Z,68.13
2023-04-15T05:17:28.429Z,68.13
2023-04-15T05:18:28.392Z,68.35
2023-04-15T05:19:28.352Z,68.94
2023-04-15T05:20:28.312Z,68.42
2023-04-15T05:21:28.338Z,68.55
2023-04-15T05:22:28.325Z,68.13
2023-04-15T05:23:28.375Z,68.35
2023-04-15T05:24:28.347Z,68.03
2023-04-15T05:25:28.342Z,67.20
2023-04-15T05:26:28.272Z,67.61
2023-04-15T05:27:28.273Z,68.21
2023-04-15T05:28:28.973Z,68.42
2023-04-15T05:29:28.958Z,69.35
2023-04-15T05:30:28.936Z,68.94
2023-04-15T05:31:28.297Z,68.10
2023-04-15T05:32:28.920Z,68.21
2023-04-15T05:33:28.880Z,67.17
2023-04-15T05:34:28.186Z,66.86
2023-04-15T05:35:28.111Z,67.55
2023-04-15T05:36:28.163Z,69.64
2023-04-15T05:37:28.121Z,69.12
2023-04-15T05:38:28.097Z,70.05
2023-04-15T05:39:28.182Z,71.27
2023-04-15T05:40:28.156Z,71.48
2023-04-15T05:41:28.082Z,71.89
2023-04-15T05:42:28.048Z,71.89
2023-04-15T05:43:28.113Z,73.11
2023-04-15T05:44:28.064Z,74.04
2023-04-15T05:45:27.999Z,73.83
2023-04-15T05:46:28.264Z,74.04
2023-04-15T05:47:28.014Z,74.77
2023-04-15T05:48:27.978Z,74.84
2023-04-15T05:49:27.967Z,75.57
2023-04-15T05:50:27.949Z,77.27
2023-04-15T05:51:27.965Z,76.29
2023-04-15T05:52:27.930Z,76.40
2023-04-15T05:53:27.921Z,76.37
2023-04-15T05:54:28.109Z,76.37
2023-04-15T05:55:27.845Z,76.26
2023-04-15T05:56:28.098Z,77.16
2023-04-15T05:57:27.934Z,77.58
2023-04-15T05:58:27.845Z,77.85
2023-04-15T05:59:27.841Z,78.58
2023-04-15T06:00:27.836Z,77.33
2023-04-15T06:01:27.812Z,77.82
2023-04-15T06:02:27.953Z,78.44
2023-04-15T06:03:27.817Z,80.68
2023-04-15T06:04:27.927Z,83.90
2023-04-15T06:05:27.718Z,82.34
2023-04-15T06:06:27.762Z,82.10
2023-04-15T06:07:27.725Z,81.48
2023-04-15T06:08:27.721Z,82.89
2023-04-15T06:09:27.683Z,85.58
2023-04-15T06:10:27.725Z,89.17
2023-04-15T06:11:27.654Z,91.35
2023-04-15T06:12:27.411Z,89.48
2023-04-15T06:13:27.446Z,88.51
2023-04-15T06:14:27.619Z,88.71
2023-04-15T06:15:27.638Z,88.40
2023-04-15T06:16:27.651Z,89.29
2023-04-15T06:17:28.273Z,88.36
2023-04-15T06:18:27.609Z,91.22
2023-04-15T06:19:27.547Z,92.50
2023-04-15T06:20:27.428Z,92.81
2023-04-15T06:21:29.003Z,90.95
2023-04-15T06:22:27.431Z,90.95
2023-04-15T06:23:28.059Z,91.99
2023-04-15T06:24:27.503Z,92.19
2023-04-15T06:25:27.449Z,91.53
2023-04-15T06:26:27.498Z,91.28
2023-04-15T06:27:28.181Z,93.14
2023-04-15T06:28:28.220Z,90.97
2023-04-15T06:29:27.447Z,94.34
2023-04-15T06:30:28.151Z,92.27
2023-04-15T06:31:27.420Z,92.54
2023-04-15T06:32:27.410Z,92.85
2023-04-15T06:33:27.361Z,96.47
2023-04-15T06:34:27.368Z,95.18
2023-04-15T06:35:27.311Z,96.69
2023-04-15T06:36:27.311Z,99.16
2023-04-15T06:37:27.332Z,97.77
2023-04-15T06:38:27.330Z,99.99
2023-04-15T06:39:27.273Z,99.99
2023-04-15T06:40:27.314Z,99.99
2023-04-15T06:41:26.990Z,99.99
2023-04-15T06:42:27.237Z,99.99
2023-04-15T06:43:27.235Z,99.99
2023-04-15T06:44:27.880Z,99.99
2023-04-15T06:45:27.189Z,99.99
2023-04-15T06:46:27.911Z,99.99
2023-04-15T06:47:27.863Z,99.99
2023-04-15T06:48:27.149Z,99.99
2023-04-15T06:49:27.146Z,99.99
2023-04-15T06:50:27.106Z,99.99
2023-04-15T06:51:27.124Z,99.99
2023-04-15T06:52:27.099Z,99.99
2023-04-15T06:53:27.097Z,99.99
2023-04-15T06:54:27.067Z,99.99
2023-04-15T06:55:27.029Z,99.99
2023-04-15T06:56:27.054Z,99.99
2023-04-15T06:57:27.027Z,99.99
2023-04-15T06:58:27.018Z,87.38
2023-04-15T06:59:27.011Z,76.67
2023-04-15T07:00:26.964Z,67.63
2023-04-15T07:01:27.019Z,61.10
2023-04-15T07:02:27.027Z,59.52
2023-04-15T07:03:26.949Z,57.73
2023-04-15T07:04:26.971Z,56.31
2023-04-15T07:05:26.930Z,57.43
2023-04-15T07:06:27.140Z,56.21
2023-04-15T07:07:26.891Z,55.58
2023-04-15T07:08:26.882Z,56.13
2023-04-15T07:09:26.873Z,55.78
2023-04-15T07:10:27.567Z,53.75
2023-04-15T07:11:26.817Z,52.56
2023-04-15T07:12:26.840Z,50.80
2023-04-15T07:13:26.815Z,50.42
2023-04-15T07:14:26.804Z,49.58
2023-04-15T07:15:26.788Z,49.09
2023-04-15T07:16:28.626Z,47.70
2023-04-15T07:17:26.784Z,46.47
2023-04-15T07:18:26.746Z,46.97
2023-04-15T07:19:26.731Z,47.80
2023-04-15T07:20:26.795Z,48.93
2023-04-15T07:21:26.683Z,46.99
2023-04-15T07:22:26.691Z,46.89
2023-04-15T07:23:26.694Z,47.85
2023-04-15T07:24:26.676Z,47.30
2023-04-15T07:25:26.648Z,47.30
2023-04-15T07:26:26.612Z,46.71
2023-04-15T07:27:26.628Z,46.21
2023-04-15T07:28:26.615Z,46.43
2023-04-15T07:29:27.322Z,47.24
2023-04-15T07:30:27.256Z,46.86
2023-04-15T07:31:26.605Z,46.71
2023-04-15T07:32:26.322Z,46.84
2023-04-15T07:33:26.335Z,46.59
2023-04-15T07:34:26.549Z,45.16
2023-04-15T07:35:26.521Z,45.16
2023-04-15T07:36:26.476Z,44.53
2023-04-15T07:37:26.495Z,45.30
2023-04-15T07:38:26.468Z,45.78
2023-04-15T07:39:26.468Z,45.98
2023-04-15T07:40:26.453Z,45.58
2023-04-15T07:41:26.408Z,45.18
2023-04-15T07:42:26.436Z,45.85
2023-04-15T07:43:26.405Z,47.47
2023-04-15T07:44:27.081Z,46.71
2023-04-15T07:45:26.396Z,45.18
2023-04-15T07:46:27.473Z,46.01
2023-04-15T07:47:26.380Z,46.15
2023-04-15T07:48:27.065Z,46.49
2023-04-15T07:49:27.067Z,47.38
2023-04-15T07:50:27.058Z,45.32
2023-04-15T07:51:26.281Z,44.69
2023-04-15T07:52:27.019Z,43.56
2023-04-15T07:53:26.995Z,43.79
2023-04-15T07:54:26.253Z,43.88
2023-04-15T07:55:27.783Z,42.66
2023-04-15T07:56:26.256Z,43.36
2023-04-15T07:57:26.214Z,43.24
2023-04-15T07:58:26.210Z,42.32
2023-04-15T07:59:26.196Z,42.66
2023-04-15T08:00:26.184Z,44.35
2023-04-15T08:01:26.146Z,45.89
2023-04-15T08:02:26.221Z,44.98
2023-04-15T08:03:26.325Z,45.38
2023-04-15T08:04:26.288Z,44.45
2023-04-15T08:05:26.113Z,43.93
2023-04-15T08:06:26.080Z,43.00
2023-04-15T08:07:26.799Z,44.23
2023-04-15T08:08:26.077Z,43.38
2023-04-15T08:09:26.058Z,43.76
2023-04-15T08:10:26.047Z,42.76
2023-04-15T08:11:26.015Z,42.15
2023-04-15T08:12:26.019Z,42.03
2023-04-15T08:13:26.000Z,42.32
2023-04-15T08:14:25.995Z,41.71
2023-04-15T08:15:25.991Z,41.19
2023-04-15T08:16:25.997Z,41.31
2023-04-15T08:17:27.232Z,40.91
2023-04-15T08:18:25.940Z,41.93
2023-04-15T08:19:25.946Z,41.47
2023-04-15T08:20:25.967Z,41.61
2023-04-15T08:21:25.929Z,40.97
2023-04-15T08:22:25.892Z,41.09
2023-04-15T08:23:26.592Z,41.19
2023-04-15T08:24:25.849Z,41.73
2023-04-15T08:25:25.872Z,41.71
2023-04-15T08:26:25.816Z,41.51
2023-04-15T08:27:25.812Z,41.47
2023-04-15T08:28:25.801Z,40.67
2023-04-15T08:29:25.799Z,40.97
2023-04-15T08:30:25.524Z,41.13
2023-04-15T08:31:25.386Z,39.69
2023-04-15T08:32:25.553Z,40.55
2023-04-15T08:33:25.736Z,40.45
2023-04-15T08:34:25.718Z,41.69
2023-04-15T08:35:25.528Z,41.09
2023-04-15T08:36:25.670Z,41.65
2023-04-15T08:37:25.727Z,40.15
2023-04-15T08:38:25.668Z,42.69
2023-04-15T08:39:25.542Z,41.49
2023-04-15T08:40:25.647Z,41.65
2023-04-15T08:41:25.757Z,40.41
2023-04-15T08:42:25.614Z,40.41
2023-04-15T08:43:25.547Z,41.23
2023-04-15T08:44:25.432Z,41.35
2023-04-15T08:45:25.547Z,41.43
2023-04-15T08:46:25.575Z,40.93
2023-04-15T08:47:25.442Z,40.83
2023-04-15T08:48:26.258Z,40.03
2023-04-15T08:49:26.243Z,40.83
2023-04-15T08:50:26.238Z,41.57
2023-04-15T08:51:25.178Z,42.38
2023-04-15T08:52:25.478Z,42.83
2023-04-15T08:53:25.478Z,40.29
2023-04-15T08:54:25.457Z,40.39
2023-04-15T08:55:25.660Z,39.85
2023-04-15T08:56:25.420Z,39.23
2023-04-15T08:57:25.419Z,38.03
2023-04-15T08:58:25.435Z,38.73
2023-04-15T08:59:25.404Z,39.13
2023-04-15T09:00:25.387Z,38.67
2023-04-15T09:01:25.395Z,40.07
2023-04-15T09:02:25.439Z,39.53
2023-04-15T09:03:25.441Z,38.07
2023-04-15T09:04:25.998Z,37.58
2023-04-15T09:05:25.327Z,38.53
2023-04-15T09:06:25.270Z,38.51
2023-04-15T09:07:25.297Z,39.54
2023-04-15T09:08:25.347Z,39.09
2023-04-15T09:09:25.266Z,39.07
2023-04-15T09:10:25.251Z,38.59
2023-04-15T09:11:25.207Z,38.81
2023-04-15T09:12:25.213Z,39.95
2023-04-15T09:13:25.197Z,40.57
2023-04-15T09:14:25.194Z,40.26
2023-04-15T09:15:25.198Z,39.71
2023-04-15T09:16:25.209Z,38.90
2023-04-15T09:17:25.200Z,39.31
2023-04-15T09:18:25.137Z,38.90
2023-04-15T09:19:25.172Z,38.62
2023-04-15T09:20:25.117Z,40.11
2023-04-15T09:21:25.081Z,38.97
2023-04-15T09:22:25.093Z,38.89
2023-04-15T09:23:25.069Z,39.03
2023-04-15T09:24:25.054Z,38.60
2023-04-15T09:25:25.054Z,37.90
2023-04-15T09:26:25.011Z,39.11
2023-04-15T09:27:25.015Z,38.67
2023-04-15T09:28:24.514Z,38.81
2023-04-15T09:29:24.992Z,35.21
2023-04-15T09:30:24.989Z,35.41
2023-04-15T09:31:25.003Z,36.53
2023-04-15T09:32:25.644Z,36.44
2023-04-15T09:33:24.933Z,36.15
2023-04-15T09:34:24.930Z,36.75
2023-04-15T09:35:24.899Z,36.13
2023-04-15T09:36:24.874Z,36.53
2023-04-15T09:37:32.037Z,35.23
2023-04-15T09:38:25.874Z,36.99
2023-04-15T09:39:25.574Z,34.13
2023-04-15T09:40:24.855Z,31.36
2023-04-15T09:41:24.816Z,31.43
2023-04-15T09:42:24.846Z,31.90
2023-04-15T09:43:24.236Z,31.13
2023-04-15T09:44:24.794Z,31.48
2023-04-15T09:45:27.145Z,29.90
2023-04-15T09:46:24.778Z,30.04
2023-04-15T09:47:24.764Z,31.67
2023-04-15T09:48:24.724Z,30.38
2023-04-15T09:49:24.770Z,33.31
2023-04-15T09:50:24.936Z,32.02
2023-04-15T09:51:24.421Z,31.84
2023-04-15T09:52:24.663Z,32.28
2023-04-15T09:53:24.436Z,32.59
2023-04-15T09:54:24.665Z,31.31
2023-04-15T09:55:24.633Z,29.61
2023-04-15T09:56:24.644Z,30.93
2023-04-15T09:57:24.629Z,29.86
2023-04-15T09:58:24.635Z,30.55
2023-04-15T09:59:24.448Z,29.64
2023-04-15T10:00:24.582Z,30.60
2023-04-15T10:01:24.824Z,32.05
2023-04-15T10:02:24.630Z,30.15
2023-04-15T10:03:24.672Z,30.99
2023-04-15T10:04:25.407Z,28.97
2023-04-15T10:05:24.519Z,30.14
2023-04-15T10:06:24.507Z,31.29
2023-04-15T10:07:24.474Z,29.80
2023-04-15T10:08:24.530Z,30.16
2023-04-15T10:09:24.458Z,30.05
2023-04-15T10:10:25.185Z,30.07
2023-04-15T10:11:24.455Z,30.35
2023-04-15T10:12:24.392Z,30.98
2023-04-15T10:13:25.136Z,30.60
2023-04-15T10:14:25.136Z,31.21
2023-04-15T10:15:25.105Z,30.08
2023-04-15T10:16:24.479Z,29.02
2023-04-15T10:17:24.353Z,29.17
2023-04-15T10:18:25.078Z,28.71
2023-04-15T10:19:24.340Z,28.09
2023-04-15T10:20:24.378Z,29.67
2023-04-15T10:21:24.321Z,27.86
2023-04-15T10:22:24.279Z,27.64
2023-04-15T10:23:24.304Z,28.50
2023-04-15T10:24:24.274Z,29.52
2023-04-15T10:25:24.272Z,29.93
2023-04-15T10:26:24.250Z,29.57
2023-04-15T10:27:24.215Z,29.78
2023-04-15T10:28:24.226Z,30.94
2023-04-15T10:29:24.926Z,29.65
2023-04-15T10:30:24.226Z,29.72
2023-04-15T10:31:24.247Z,28.58
2023-04-15T10:32:24.899Z,28.87
2023-04-15T10:33:24.450Z,28.45
2023-04-15T10:34:24.136Z,29.05
2023-04-15T10:35:24.132Z,28.12
2023-04-15T10:36:24.135Z,27.93
2023-04-15T10:37:24.087Z,26.81
2023-04-15T10:38:24.095Z,27.92
2023-04-15T10:39:24.311Z,27.43
2023-04-15T10:40:24.288Z,26.63
2023-04-15T10:41:24.292Z,27.92
2023-04-15T10:42:24.017Z,26.81
2023-04-15T10:43:24.037Z,29.67
2023-04-15T10:44:24.029Z,27.49
2023-04-15T10:45:24.005Z,27.24
2023-04-15T10:46:24.072Z,27.17
2023-04-15T10:47:24.041Z,29.27
2023-04-15T10:48:23.970Z,28.19
2023-04-15T10:49:23.951Z,30.02
2023-04-15T10:50:23.941Z,30.38
2023-04-15T10:51:24.172Z,30.58
2023-04-15T10:52:23.906Z,31.07
2023-04-15T10:53:23.648Z,31.07
2023-04-15T10:54:23.645Z,31.29
2023-04-15T10:55:23.639Z,31.82
2023-04-15T10:56:24.528Z,32.85
2023-04-15T10:57:23.847Z,32.98
2023-04-15T10:58:23.812Z,33.60
2023-04-15T10:59:23.647Z,33.53
2023-04-15T11:00:23.805Z,33.11
2023-04-15T11:01:23.678Z,33.33
2023-04-15T11:02:23.801Z,35.77
2023-04-15T11:03:23.827Z,36.19
2023-04-15T11:04:23.800Z,35.99
2023-04-15T11:05:23.754Z,35.97
2023-04-15T11:06:23.726Z,35.97
2023-04-15T11:07:23.942Z,36.89
2023-04-15T11:08:23.672Z,36.19
2023-04-15T11:09:23.680Z,37.11
2023-04-15T11:10:23.669Z,37.41
2023-04-15T11:11:23.648Z,37.95
2023-04-15T11:12:24.359Z,38.06
2023-04-15T11:13:24.371Z,39.17
2023-04-15T11:14:23.611Z,38.13
2023-04-15T11:15:23.600Z,38.24
2023-04-15T11:16:23.646Z,38.95
2023-04-15T11:17:23.601Z,38.84
2023-04-15T11:18:23.539Z,38.93
2023-04-15T11:19:23.564Z,39.04
2023-04-15T11:20:23.529Z,39.67
2023-04-15T11:21:23.745Z,40.28
2023-04-15T11:22:23.516Z,39.65
2023-04-15T11:23:23.467Z,38.56
2023-04-15T11:24:23.479Z,38.66
2023-04-15T11:25:23.470Z,37.84
2023-04-15T11:26:23.212Z,37.60
2023-04-15T11:27:24.124Z,37.27
2023-04-15T11:28:23.665Z,36.94
2023-04-15T11:29:23.621Z,35.73
2023-04-15T11:30:24.067Z,35.51
2023-04-15T11:31:23.386Z,34.99
2023-04-15T11:32:23.424Z,34.96
2023-04-15T11:33:23.340Z,34.06
2023-04-15T11:34:23.341Z,33.87
2023-04-15T11:35:23.332Z,33.65
2023-04-15T11:36:23.307Z,33.65
2023-04-15T11:37:23.343Z,34.02
2023-04-15T11:38:23.285Z,32.93
2023-04-15T11:39:23.266Z,33.67
2023-04-15T11:40:23.936Z,34.27
2023-04-15T11:41:23.248Z,34.47
2023-04-15T11:42:23.229Z,34.46
2023-04-15T11:43:23.454Z,34.14
2023-04-15T11:44:23.217Z,33.44
2023-04-15T11:45:23.190Z,34.04
2023-04-15T11:46:23.278Z,33.52
2023-04-15T11:47:23.876Z,33.52
2023-04-15T11:48:23.836Z,32.59
2023-04-15T11:49:23.146Z,32.97
2023-04-15T11:50:23.127Z,31.84
2023-04-15T11:51:23.111Z,31.62
2023-04-15T11:52:23.105Z,31.24
2023-04-15T11:53:23.316Z,31.94
2023-04-15T11:54:23.081Z,33.04
2023-04-15T11:55:23.071Z,32.32
2023-04-15T11:56:23.080Z,34.38
2023-04-15T11:57:23.026Z,34.41
2023-04-15T11:58:22.983Z,35.73
2023-04-15T11:59:24.860Z,36.15
2023-04-15T12:00:23.655Z,36.47
2023-04-15T12:01:23.200Z,35.53
2023-04-15T12:02:23.120Z,34.59
2023-04-15T12:03:23.145Z,33.48
2023-04-15T12:04:25.575Z,34.51
2023-04-15T12:05:23.163Z,34.81
2023-04-15T12:06:22.361Z,34.29
2023-04-15T12:07:22.884Z,33.57
2023-04-15T12:08:22.862Z,34.49
2023-04-15T12:09:23.531Z,34.38
2023-04-15T12:10:22.844Z,34.14
2023-04-15T12:11:22.839Z,35.18
2023-04-15T12:12:22.846Z,36.16
2023-04-15T12:13:23.499Z,35.43
2023-04-15T12:14:22.579Z,34.63
2023-04-15T12:15:22.786Z,33.81
2023-04-15T12:16:22.794Z,34.21
2023-04-15T12:17:22.777Z,33.95
2023-04-15T12:18:22.718Z,34.66
2023-04-15T12:19:22.786Z,34.54
2023-04-15T12:20:23.378Z,33.57
2023-04-15T12:21:22.708Z,34.14
2023-04-15T12:22:22.705Z,33.55
2023-04-15T12:23:22.688Z,33.99
2023-04-15T12:24:22.668Z,34.63
2023-04-15T12:25:22.646Z,34.42
2023-04-15T12:26:22.672Z,35.41
2023-04-15T12:27:22.618Z,36.49
2023-04-15T12:28:22.609Z,33.40
2023-04-15T12:29:23.571Z,33.47
2023-04-15T12:30:22.577Z,33.37
2023-04-15T12:31:22.641Z,34.09
2023-04-15T12:32:23.299Z,35.41
2023-04-15T12:33:23.262Z,35.25
2023-04-15T12:34:23.273Z,34.53
2023-04-15T12:35:22.526Z,34.89
2023-04-15T12:36:23.217Z,33.54
2023-04-15T12:37:22.547Z,32.93
2023-04-15T12:38:22.487Z,33.00
2023-04-15T12:39:22.434Z,33.33
2023-04-15T12:40:22.459Z,32.91
2023-04-15T12:41:22.445Z,31.91
2023-04-15T12:42:22.422Z,32.59
2023-04-15T12:43:21.788Z,32.76
2023-04-15T12:44:22.369Z,34.31
2023-04-15T12:45:22.380Z,34.54
2023-04-15T12:46:22.413Z,34.16
2023-04-15T12:47:22.396Z,34.98
2023-04-15T12:48:22.340Z,35.80
2023-04-15T12:49:22.322Z,36.30
2023-04-15T12:50:22.337Z,36.82
2023-04-15T12:51:22.310Z,35.83
2023-04-15T12:52:22.311Z,36.74